createdAt,value
2023-01-29T00:04:33.795Z,971.78
2023-01-29T00:09:35.963Z,971.86
2023-01-29T00:14:38.184Z,971.81
2023-01-29T00:19:39.312Z,971.88
2023-01-29T00:24:40.750Z,971.96
2023-01-29T00:29:42.277Z,971.93
2023-01-29T00:34:43.958Z,971.93
2023-01-29T00:39:48.024Z,971.91
2023-01-29T00:44:47.517Z,971.9
2023-01-29T00:49:49.476Z,971.93
2023-01-29T00:54:51.231Z,971.87
2023-01-29T00:59:52.659Z,971.85
2023-01-29T01:04:54.607Z,971.9
2023-01-29T01:09:56.333Z,971.89
2023-01-29T01:14:57.332Z,971.92
2023-01-29T01:19:59.415Z,971.96
2023-01-29T01:25:01.438Z,971.97
2023-01-29T01:30:02.714Z,972.07
2023-01-29T01:35:03.897Z,972.05
2023-01-29T01:40:05.351Z,971.92
2023-01-29T01:45:07.312Z,972.04
2023-01-29T01:50:08.652Z,972.04
2023-01-29T02:20:20.113Z,971.96
2023-01-29T02:40:27.042Z,971.8
2023-01-29T02:45:29.194Z,971.81
2023-01-29T02:50:30.597Z,971.8
2023-01-29T02:55:32.625Z,971.74
2023-01-29T03:00:34.141Z,971.73
2023-01-29T03:10:37.158Z,971.78
2023-01-29T03:15:39.107Z,971.86
2023-01-29T03:20:40.644Z,971.9
2023-01-29T03:25:42.717Z,971.9
2023-01-29T03:30:44.187Z,971.86
2023-01-29T03:35:46.358Z,971.88
2023-01-29T03:40:47.912Z,971.8
2023-01-29T03:45:49.695Z,971.73
2023-01-29T03:50:50.786Z,971.57
2023-01-29T03:55:52.482Z,971.48
2023-01-29T04:00:54.234Z,971.54
2023-01-29T04:06:02.485Z,971.51
2023-01-29T04:11:04.483Z,971.52
2023-01-29T04:16:06.197Z,971.59
2023-01-29T04:21:07.700Z,971.58
2023-01-29T04:26:09.070Z,971.67
2023-01-29T04:31:10.718Z,971.61
2023-01-29T04:36:12.509Z,971.68
2023-01-29T04:41:14.094Z,971.69
2023-01-29T04:46:16.010Z,971.58
2023-01-29T04:51:18.182Z,971.49
2023-01-29T04:56:19.622Z,971.47
2023-01-29T05:01:21.287Z,971.61
2023-01-29T05:06:22.484Z,971.64
2023-01-29T05:11:23.845Z,971.58
2023-01-29T05:16:25.901Z,971.69
2023-01-29T05:21:27.727Z,971.88
2023-01-29T05:26:29.445Z,971.92
2023-01-29T05:31:30.739Z,971.92
2023-01-29T05:36:32.790Z,971.92
2023-01-29T05:41:34.240Z,971.94
2023-01-29T05:46:36.411Z,971.97
2023-01-29T05:51:38.318Z,971.89
2023-01-29T05:56:39.530Z,971.97
2023-01-29T06:01:41.039Z,971.91
2023-01-29T06:06:42.993Z,971.87
2023-01-29T06:11:44.412Z,971.83
2023-01-29T06:16:46.416Z,971.86
2023-01-29T06:21:47.730Z,971.88
2023-01-29T06:26:49.639Z,971.88
2023-01-29T06:31:51.716Z,971.94
2023-01-29T06:36:52.787Z,971.85
2023-01-29T06:41:54.856Z,971.95
2023-01-29T06:46:56.631Z,972.03
2023-01-29T06:51:58.042Z,972.02
2023-01-29T06:56:59.357Z,972.11
2023-01-29T07:02:00.591Z,972.02
2023-01-29T07:07:01.848Z,971.94
2023-01-29T07:12:03.507Z,971.86
2023-01-29T07:17:05.464Z,971.72
2023-01-29T07:22:06.710Z,971.75
2023-01-29T07:27:08.364Z,971.76
2023-01-29T07:32:10.045Z,971.64
2023-01-29T07:37:11.167Z,971.62
2023-01-29T07:42:12.646Z,971.61
2023-01-29T07:47:15.199Z,971.7
2023-01-29T07:52:15.895Z,971.69
2023-01-29T07:57:17.092Z,971.72
2023-01-29T08:02:18.538Z,971.7
2023-01-29T08:07:20.445Z,971.69
2023-01-29T08:12:21.774Z,971.74
2023-01-29T08:17:23.234Z,971.77
2023-01-29T08:22:24.966Z,971.83
2023-01-29T08:27:27.022Z,971.83
2023-01-29T08:32:28.257Z,971.84
2023-01-29T08:37:29.581Z,971.85
2023-01-29T08:42:30.909Z,971.99
2023-01-29T08:47:32.491Z,972.17
2023-01-29T08:52:33.982Z,972.2
2023-01-29T08:57:35.596Z,972.21
2023-01-29T09:02:36.863Z,972.18
2023-01-29T09:07:38.861Z,972.25
2023-01-29T09:12:40.367Z,972.34
2023-01-29T09:17:42.273Z,972.36
2023-01-29T09:22:43.591Z,972.42
2023-01-29T09:27:45.037Z,972.45
2023-01-29T09:32:54.543Z,972.45
2023-01-29T09:37:48.462Z,972.58
2023-01-29T09:42:49.876Z,972.63
2023-01-29T09:47:51.375Z,972.57
2023-01-29T09:52:52.900Z,972.53
2023-01-29T09:57:55.011Z,972.48
2023-01-29T10:02:57.070Z,972.61
2023-01-29T10:07:58.822Z,972.55
2023-01-29T10:13:00.578Z,972.51
2023-01-29T10:18:02.115Z,972.46
2023-01-29T10:23:03.872Z,972.49
2023-01-29T10:28:05.055Z,972.4
2023-01-29T10:33:06.933Z,972.34
2023-01-29T10:38:08.348Z,972.32
2023-01-29T10:43:09.693Z,972.33
2023-01-29T10:48:11.522Z,972.3
2023-01-29T10:53:13.348Z,972.27
2023-01-29T10:58:14.353Z,972.26
2023-01-29T11:03:26.735Z,972.18
2023-01-29T11:08:17.755Z,972.16
2023-01-29T11:13:18.837Z,972.07
2023-01-29T11:18:20.780Z,972.03
2023-01-29T11:23:22.190Z,971.94
2023-01-29T11:28:24.294Z,971.89
2023-01-29T11:33:26.032Z,971.76
2023-01-29T11:38:27.117Z,971.76
2023-01-29T11:43:28.722Z,971.62
2023-01-29T11:48:30.868Z,971.4
2023-01-29T11:53:32.373Z,971.19
2023-01-29T11:58:33.645Z,971.16
2023-01-29T12:03:35.214Z,971.15
2023-01-29T12:08:37.384Z,971.22
2023-01-29T12:13:38.801Z,971.23
2023-01-29T12:18:40.923Z,971.32
2023-01-29T12:23:42.164Z,971.41
2023-01-29T12:28:44.163Z,971.26
2023-01-29T12:33:45.502Z,971.26
2023-01-29T12:38:47.538Z,971.17
2023-01-29T12:43:49.366Z,971.1
2023-01-29T12:48:51.509Z,970.93
2023-01-29T12:53:53.078Z,970.78
2023-01-29T12:58:54.561Z,970.65
2023-01-29T13:03:56.349Z,970.56
2023-01-29T13:08:57.935Z,970.53
2023-01-29T13:13:59.199Z,970.45
2023-01-29T13:19:01.293Z,970.48
2023-01-29T13:24:03.024Z,970.48
2023-01-29T13:29:04.716Z,970.43
2023-01-29T13:34:06.214Z,970.33
2023-01-29T13:39:07.559Z,970.25
2023-01-29T13:44:09.187Z,970.19
2023-01-29T13:49:11.415Z,970.19
2023-01-29T13:54:12.890Z,970.18
2023-01-29T13:59:14.255Z,970.09
2023-01-29T14:04:16.179Z,970.11
2023-01-29T14:09:17.758Z,969.98
2023-01-29T14:14:19.352Z,969.93
2023-01-29T14:19:20.932Z,970
2023-01-29T14:24:22.621Z,970.09
2023-01-29T14:29:33.706Z,970.21
2023-01-29T14:34:25.948Z,970.23
2023-01-29T14:39:27.327Z,970.35
2023-01-29T14:44:28.610Z,970.31
2023-01-29T14:49:30.701Z,970.23
2023-01-29T14:54:32.281Z,970.15
2023-01-29T14:59:34.246Z,970.03
2023-01-29T15:04:35.736Z,970.06
2023-01-29T15:09:39.591Z,970.04
2023-01-29T15:14:39.528Z,970.05
2023-01-29T15:19:41.557Z,970.14
2023-01-29T15:24:43.187Z,970.13
2023-01-29T15:29:44.646Z,970.2
2023-01-29T15:34:46.288Z,970.12
2023-01-29T15:39:47.586Z,970.16
2023-01-29T15:44:48.993Z,970.21
2023-01-29T15:49:50.388Z,970.17
2023-01-29T15:54:52.941Z,970.19
2023-01-29T15:59:53.835Z,970.21
2023-01-29T16:04:55.811Z,970.15
2023-01-29T16:09:57.264Z,970.21
2023-01-29T16:14:58.452Z,970.25
2023-01-29T16:20:00.138Z,970.27
2023-01-29T16:25:02.052Z,970.32
2023-01-29T16:30:04.055Z,970.3
2023-01-29T16:35:05.023Z,970.34
2023-01-29T16:40:07.178Z,970.39
2023-01-29T16:45:09.016Z,970.48
2023-01-29T16:50:10.144Z,970.45
2023-01-29T17:05:14.756Z,970.56
2023-01-29T17:20:19.853Z,970.61
2023-01-29T17:25:22.030Z,970.63
2023-01-29T17:45:28.075Z,970.57
2023-01-29T17:55:30.912Z,970.57
2023-01-29T18:00:32.807Z,970.52
2023-01-29T18:05:35.021Z,970.49
2023-01-29T18:15:38.744Z,970.53
2023-01-29T18:20:40.023Z,970.52
2023-01-29T18:25:41.305Z,970.52
2023-01-29T18:30:43.295Z,970.52
2023-01-29T18:35:45.245Z,970.5
2023-01-29T18:40:47.076Z,970.44
2023-01-29T18:45:49.021Z,970.47
2023-01-29T18:50:50.194Z,970.48
2023-01-29T18:55:51.789Z,970.47
2023-01-29T19:00:53.951Z,970.39
2023-01-29T19:05:55.563Z,970.42
2023-01-29T19:10:57.477Z,970.44
2023-01-29T19:15:58.742Z,970.4
2023-01-29T19:21:00.628Z,970.41
2023-01-29T19:26:02.644Z,970.37
2023-01-29T19:31:04.862Z,970.32
2023-01-29T19:36:06.521Z,970.32
2023-01-29T19:41:07.981Z,970.29
2023-01-29T19:46:09.594Z,970.28
2023-01-29T19:51:10.925Z,970.25
2023-01-29T19:56:12.155Z,970.2
2023-01-29T20:01:13.760Z,970.18
2023-01-29T20:06:15.102Z,970.05
2023-01-29T20:11:17.201Z,970.08
2023-01-29T20:16:19.273Z,970.02
2023-01-29T20:21:21.031Z,969.99
2023-01-29T20:26:23.089Z,970.01
2023-01-29T20:31:24.949Z,970.15
2023-01-29T20:36:26.572Z,970.04
2023-01-29T20:41:28.038Z,970.05
2023-01-29T20:46:29.598Z,970.02
2023-01-29T20:46:35.903Z,970.04
2023-01-29T20:51:37.949Z,970.1
2023-01-29T20:56:42.091Z,969.99
2023-01-29T21:01:42.025Z,970
2023-01-29T21:06:43.329Z,970
2023-01-29T21:11:45.215Z,969.91
2023-01-29T21:16:46.541Z,969.92
2023-01-29T21:21:47.806Z,969.94
2023-01-29T21:26:49.837Z,970
2023-01-29T21:31:51.187Z,970.02
2023-01-29T21:36:53.091Z,970.07
2023-01-29T21:41:54.852Z,969.99
2023-01-29T21:46:56.525Z,969.95
2023-01-29T21:51:58.379Z,969.88
2023-01-29T21:56:59.733Z,969.82
2023-01-29T22:02:01.634Z,969.76
2023-01-29T22:07:02.896Z,969.8
2023-01-29T22:12:04.076Z,969.8
2023-01-29T22:17:06.864Z,969.77
2023-01-29T22:22:07.984Z,969.71
2023-01-29T22:27:10.036Z,969.59
2023-01-29T22:32:12.182Z,969.49
2023-01-29T22:37:13.892Z,969.42
2023-01-29T22:42:15.620Z,969.3
2023-01-29T22:47:17.534Z,969.2
2023-01-29T22:52:19.005Z,969.12
2023-01-29T22:57:20.356Z,969.13
2023-01-29T23:02:21.812Z,969.05
2023-01-29T23:07:23.368Z,968.99
2023-01-29T23:12:25.574Z,968.97
2023-01-29T23:17:27.166Z,968.94
2023-01-29T23:22:29.010Z,968.9
2023-01-29T23:27:30.763Z,968.96
2023-01-29T23:32:32.468Z,968.87
2023-01-29T23:37:33.868Z,968.8
2023-01-29T23:42:35.519Z,968.77
2023-01-29T23:47:36.996Z,968.58
2023-01-29T23:52:38.613Z,968.53
2023-01-29T23:57:39.984Z,968.52
